Time;durP1;ratioP1;P1;durP2;ratioP2;P2;SDS_P1;SDS_P2;PMS_P1;PMS_P2;Temp;Humidity;BMP_temperature;BMP_pressure;BME280_temperature;BME280_humidity;BME280_pressure;Samples;Min_cycle;Max_cycle;Signal;HPM_P1;HPM_P2
2021/12/14 11:29:14;;;;;;;42.08;26.02;;;;;;;6.77;65.82;101542.88;5553612;31;123492;-58
2021/12/14 11:32:20;;;;;;;43.45;26.65;;;;;;;6.45;71.23;101535.06;5561357;32;34312;-58
2021/12/14 11:35:29;;;;;;;45.08;27.92;;;;;;;6.33;60.55;101532.37;5568629;31;33405;-58
2021/12/14 11:38:41;;;;;;;43.55;27.48;;;;;;;6.33;60.11;101544.88;5567448;32;33880;-58
2021/12/14 11:41:49;;;;;;;42.05;26.70;;;;;;;6.45;67.67;101540.41;5561807;32;33747;-58
2021/12/14 11:44:57;;;;;;;41.53;26.08;;;;;;;6.61;69.53;101535.50;5568412;32;34394;-58
2021/12/14 11:47:59;;;;;;;43.33;25.17;;;;;;;6.89;63.31;101541.06;5568673;32;33496;-58
2021/12/14 11:51:05;;;;;;;42.47;27.75;;;;;;;6.67;72.02;101531.94;5568117;32;34399;-58
2021/12/14 11:54:08;;;;;;;48.15;27.70;;;;;;;6.63;59.89;101528.91;5558220;32;34326;-58
2021/12/14 11:57:15;;;;;;;51.78;31.20;;;;;;;6.93;73.02;101531.56;5562400;32;34365;-59
2021/12/14 12:00:19;;;;;;;;;;;;;;;6.88;59.68;101526.09;5580560;31;33692;-58
2021/12/14 12:03:32;;;;;;;40.67;27.48;;;;;;;6.86;61.49;101527.38;5561077;32;34069;-58
2021/12/14 12:09:50;;;;;;;43.97;29.67;;;;;;;6.74;58.48;101522.81;5558754;32;34284;-58
2021/12/14 12:12:52;;;;;;;41.88;26.75;;;;;;;7.11;62.73;101520.00;5558158;32;33636;-58
2021/12/14 12:15:55;;;;;;;41.47;29.17;;;;;;;7.26;67.35;101520.38;5566681;32;33664;-58
2021/12/14 12:19:14;;;;;;;41.00;29.17;;;;;;;7.24;60.92;101524.31;5564768;32;33663;-58
2021/12/14 12:22:17;;;;;;;42.42;28.98;;;;;;;7.12;60.38;101521.66;5562787;31;34349;-58
2021/12/14 12:25:28;;;;;;;44.72;29.00;;;;;;;7.49;63.07;101532.94;5566839;31;33789;-58
2021/12/14 12:28:35;;;;;;;37.17;26.33;;;;;;;7.32;63.90;101524.00;5580283;31;34248;-58
2021/12/14 12:31:45;;;;;;;;;;;;;;;7.50;73.64;101528.41;5568343;32;33631;-58
2021/12/14 12:34:50;;;;;;;42.15;29.17;;;;;;;7.64;58.85;101518.31;5564686;31;34481;-58
2021/12/14 12:37:55;;;;;;;41.70;28.50;;;;;;;7.40;62.74;101515.66;5567244;31;33631;-58
2021/12/14 12:41:09;;;;;;;37.22;28.15;;;;;;;7.23;58.13;101510.19;5563178;32;34403;-58
2021/12/14 12:44:15;;;;;;;40.75;27.55;;;;;;;7.43;61.62;101519.72;5565602;31;33700;-58
2021/12/14 12:47:22;;;;;;;38.47;28.02;;;;;;;7.52;64.64;101521.00;5579356;31;33767;-58
2021/12/14 12:50:25;;;;;;;40.33;27.77;;;;;;;7.41;73.36;101522.59;5558722;31;33631;-59
2021/12/14 12:53:28;;;;;;;39.25;28.20;;;;;;;7.50;58.04;101523.88;5580148;31;33616;-58
2021/12/14 12:56:35;;;;;;;43.65;29.00;;;;;;;7.57;63.51;101522.97;5567092;32;33470;-58
2021/12/14 12:59:49;;;;;;;;;;;;;;;7.70;67.87;101522.72;5567670;32;33157;-58
2021/12/14 13:02:55;;;;;;;44.60;31.25;;;;;;;7.77;71.53;101521.56;5563628;31;34178;-58
2021/12/14 13:06:03;;;;;;;48.15;27.98;;;;;;;7.78;62.61;101514.34;5567112;32;33508;-58
2021/12/14 13:09:05;;;;;;;46.67;30.90;;;;;;;7.40;65.93;101509.50;5567230;32;33403;-58
2021/12/14 13:12:08;;;;;;;44.00;29.95;;;;;;;7.50;68.58;101509.75;5548553;32;33570;-58
2021/12/14 13:15:34;;;;;;;45.08;30.85;;;;;;;7.49;70.61;101502.78;5554175;32;33757;-58
2021/12/14 13:19:11;;;;;;;47.33;32.38;;;;;;;7.35;69.21;101509.38;5565593;31;33713;-58
2021/12/14 13:22:13;;;;;;;41.17;30.52;;;;;;;7.25;63.56;101501.94;5565388;31;33712;-58
2021/12/14 13:25:32;;;;;;;48.40;31.92;;;;;;;7.12;67.34;101513.66;5570035;31;33549;-58
2021/12/14 13:28:37;;;;;;;42.58;30.77;;;;;;;6.92;63.17;101519.28;5578943;31;34047;-58
2021/12/14 13:32:01;;;;;;;49.20;32.50;;;;;;;6.96;69.17;101516.97;5574677;31;33734;-58
2021/12/14 13:35:24;;;;;;;46.13;31.65;;;;;;;6.82;58.97;101521.66;5588703;31;33669;-58
2021/12/14 13:38:27;;;;;;;46.83;31.70;;;;;;;6.66;63.31;101517.00;5492803;32;33343;-58
2021/12/14 13:42:00;;;;;;;43.97;31.67;;;;;;;6.64;60.60;101521.72;5508323;31;34494;-58
2021/12/14 13:45:06;;;;;;;42.22;31.08;;;;;;;6.70;59.41;101515.50;5508782;32;34306;-58
2021/12/14 13:48:12;;;;;;;45.22;31.87;;;;;;;6.63;60.12;101514.78;5508345;32;33693;-59
2021/12/14 13:51:19;;;;;;;43.38;32.35;;;;;;;6.48;60.19;101517.84;5509003;32;33776;-58
2021/12/14 13:54:22;;;;;;;46.72;32.83;;;;;;;6.53;64.55;101518.78;5508715;31;33957;-59
2021/12/14 13:57:24;;;;;;;43.25;31.20;;;;;;;6.49;60.08;101520.28;5508641;32;33594;-58
2021/12/14 14:00:43;;;;;;;48.13;32.13;;;;;;;6.52;59.53;101517.19;5509103;32;34118;-58
2021/12/14 14:03:50;;;;;;;40.22;30.73;;;;;;;6.42;59.38;101522.19;5508765;32;33487;-58
2021/12/14 14:06:54;;;;;;;44.88;30.83;;;;;;;6.27;67.80;101527.12;5495673;32;33386;-58
2021/12/14 14:09:57;;;;;;;53.30;33.05;;;;;;;6.17;62.85;101517.00;5494487;32;33881;-58
2021/12/14 14:13:06;;;;;;;41.80;30.33;;;;;;;6.04;62.52;101517.94;5508375;32;33681;-58
2021/12/14 14:16:09;;;;;;;46.95;30.30;;;;;;;6.21;69.65;101517.34;5508194;32;34311;-58
2021/12/14 14:19:14;;;;;;;47.83;29.67;;;;;;;6.18;69.00;101523.12;5506951;32;33674;-58
2021/12/14 14:22:24;;;;;;;42.15;29.55;;;;;;;6.27;62.23;101516.47;5508185;32;33665;-58
2021/12/14 14:25:28;;;;;;;47.53;30.58;;;;;;;6.31;64.86;101521.09;5508497;32;34360;-58
2021/12/14 14:28:36;;;;;;;41.85;29.20;;;;;;;6.14;74.40;101519.28;5507851;32;33343;-58
2021/12/14 14:31:46;;;;;;;48.53;30.50;;;;;;;6.28;71.21;101518.06;5507001;32;33766;-58
2021/12/14 14:34:54;;;;;;;42.83;29.05;;;;;;;6.27;62.68;101506.62;5507497;32;33345;-58
2021/12/14 14:37:58;;;;;;;40.10;29.12;;;;;;;6.29;61.02;101520.53;5508054;32;33637;-58
2021/12/14 14:41:08;;;;;;;41.67;27.40;;;;;;;6.06;61.09;101520.38;5507412;32;33755;-58
2021/12/14 14:44:10;;;;;;;42.45;27.40;;;;;;;5.93;60.89;101531.16;5507501;32;34368;-58
2021/12/14 14:47:35;;;;;;;49.55;26.60;;;;;;;5.86;63.58;101531.19;5507208;32;34307;-58
2021/12/14 14:50:38;;;;;;;44.38;27.67;;;;;;;5.92;62.79;101538.31;5506518;32;33728;-58
2021/12/14 14:53:40;;;;;;;42.42;27.98;;;;;;;5.79;61.60;101541.09;5507540;32;33667;-58
2021/12/14 14:56:42;;;;;;;41.53;27.98;;;;;;;5.79;66.97;101541.09;5507863;32;34386;-58
2021/12/14 14:59:54;;;;;;;41.10;26.65;;;;;;;5.71;63.07;101549.38;5508060;32;33631;-58
2021/12/14 15:02:59;;;;;;;41.50;26.15;;;;;;;5.63;68.84;101553.13;5506794;32;34445;-58
2021/12/14 15:06:20;;;;;;;37.78;27.10;;;;;;;5.55;62.09;101550.75;5506585;32;34452;-58
2021/12/14 15:09:30;;;;;;;37.17;26.48;;;;;;;5.39;63.65;101550.25;5504305;32;33430;-58
2021/12/14 15:12:34;;;;;;;43.58;26.05;;;;;;;5.49;61.53;101559.59;5507062;31;34365;-58
2021/12/14 15:15:37;;;;;;;35.92;26.42;;;;;;;5.47;68.83;101565.13;5507435;32;34079;-58
2021/12/14 15:18:51;;;;;;;41.58;24.92;;;;;;;5.56;75.56;101558.53;5507543;32;33636;-58
2021/12/14 15:22:13;;;;;;;40.88;24.45;;;;;;;5.55;62.90;101559.53;5507283;32;33685;-58
2021/12/14 15:25:16;;;;;;;35.67;21.67;;;;;;;5.55;61.83;101564.84;5507913;32;33751;-58
2021/12/14 15:28:18;;;;;;;32.80;23.02;;;;;;;5.65;82.90;101567.81;5507813;31;33862;-57
2021/12/14 15:31:20;;;;;;;34.80;22.92;;;;;;;5.70;79.36;101579.69;5507280;32;33788;-58
2021/12/14 15:34:58;;;;;;;34.47;22.30;;;;;;;5.65;71.76;101562.50;5507774;31;34819;-58
2021/12/14 15:38:03;;;;;;;32.65;23.00;;;;;;;5.62;66.28;101565.59;5507882;31;33596;-58
2021/12/14 15:41:14;;;;;;;35.00;22.70;;;;;;;5.40;63.61;101564.38;5507633;32;33824;-58
2021/12/14 15:44:18;;;;;;;30.48;22.45;;;;;;;5.07;67.14;101578.72;5506850;32;34372;-58
2021/12/14 15:47:21;;;;;;;36.45;23.40;;;;;;;4.91;74.18;101581.88;5506627;32;33259;-58
2021/12/14 15:50:23;;;;;;;33.83;21.55;;;;;;;4.92;64.91;101586.97;5507811;32;34050;-58
2021/12/14 15:53:36;;;;;;;34.47;23.92;;;;;;;4.85;67.29;101574.75;5493389;32;33931;-58
2021/12/14 15:56:44;;;;;;;33.40;22.77;;;;;;;4.68;73.82;101567.25;5507906;32;33852;-57
2021/12/14 15:59:56;;;;;;;37.03;22.90;;;;;;;4.71;66.47;101571.34;5507996;32;34233;-58
2021/12/14 16:02:59;;;;;;;32.25;22.80;;;;;;;4.59;70.76;101571.19;5507591;32;33632;-58
2021/12/14 16:06:03;;;;;;;35.72;23.33;;;;;;;4.65;65.32;101570.34;5507717;32;33603;-58
2021/12/14 16:09:08;;;;;;;36.60;22.90;;;;;;;4.63;70.90;101567.06;5507989;32;34252;-58
2021/12/14 16:15:07;;;;;;;33.17;22.87;;;;;;;4.38;67.14;101571.47;5507639;32;33963;-58
2021/12/14 16:15:42;;;;;;;34.30;25.00;;;;;;;4.42;65.49;101572.69;5507602;32;33790;-58
2021/12/14 16:18:51;;;;;;;35.63;25.20;;;;;;;4.47;74.98;101572.87;5507763;32;34360;-58
2021/12/14 16:22:16;;;;;;;37.10;26.30;;;;;;;4.34;74.49;101575.56;5507484;32;33761;-58
2021/12/14 16:25:23;;;;;;;35.42;24.25;;;;;;;4.02;67.62;101572.81;5507462;32;33704;-58
2021/12/14 16:28:29;;;;;;;40.03;25.35;;;;;;;4.02;66.82;101564.84;5507241;32;34434;-59
2021/12/14 16:31:40;;;;;;;40.85;24.50;;;;;;;4.31;65.37;101581.31;5507068;32;33707;-58
2021/12/14 16:34:44;;;;;;;35.72;24.75;;;;;;;4.04;69.21;101576.06;5507401;32;33593;-58
2021/12/14 16:37:46;;;;;;;38.50;24.08;;;;;;;3.67;67.78;101577.53;5507394;32;33971;-58
2021/12/14 16:40:52;;;;;;;40.63;25.25;;;;;;;3.81;66.81;101586.28;5507826;32;33716;-59
2021/12/14 16:43:58;;;;;;;38.65;27.33;;;;;;;3.95;66.35;101575.47;5507034;32;33251;-59
2021/12/14 16:47:06;;;;;;;37.88;27.15;;;;;;;3.71;67.70;101579.59;5507240;32;34408;-58
2021/12/14 16:50:18;;;;;;;40.03;27.00;;;;;;;3.89;66.56;101573.63;5507071;32;33485;-59
2021/12/14 16:53:20;;;;;;;46.10;27.77;;;;;;;3.88;66.13;101573.84;5507301;32;33595;-58
2021/12/14 16:56:24;;;;;;;47.67;29.95;;;;;;;3.88;66.19;101573.84;5507059;32;34382;-58
2021/12/14 16:59:34;;;;;;;47.85;29.80;;;;;;;3.73;66.22;101584.66;5506944;32;33497;-58
